createdAt,value
2017-02-02T00:00:05.501Z,86.69
2017-02-02T00:00:35.523Z,86.22
2017-02-02T00:01:05.559Z,86.31
2017-02-02T00:01:35.588Z,86.69
2017-02-02T00:02:05.616Z,86.88
2017-02-02T00:02:35.651Z,86.41
2017-02-02T00:03:05.680Z,86.69
2017-02-02T00:03:35.714Z,85.74
2017-02-02T00:04:06.187Z,85.74
2017-02-02T00:04:35.771Z,86.6
2017-02-02T00:05:05.802Z,85.84
2017-02-02T00:05:35.831Z,85.93
2017-02-02T00:06:05.857Z,86.5
2017-02-02T00:06:35.889Z,86.03
2017-02-02T00:07:05.923Z,86.5
2017-02-02T00:07:35.955Z,86.41
2017-02-02T00:08:05.838Z,86.31
2017-02-02T00:08:36.013Z,86.31
2017-02-02T00:09:06.044Z,86.41
2017-02-02T00:09:36.076Z,86.31
2017-02-02T00:10:06.109Z,86.22
2017-02-02T00:10:36.145Z,86.31
2017-02-02T00:11:06.167Z,86.22
2017-02-02T00:11:36.197Z,86.79
2017-02-02T00:12:06.232Z,85.93
2017-02-02T00:12:36.262Z,86.5
2017-02-02T00:13:06.285Z,85.74
2017-02-02T00:13:36.318Z,86.22
2017-02-02T00:14:06.349Z,85.84
2017-02-02T00:14:36.382Z,86.69
2017-02-02T00:15:06.415Z,86.6
2017-02-02T00:15:36.440Z,86.5
2017-02-02T00:16:06.474Z,86.5
2017-02-02T00:16:36.506Z,86.5
2017-02-02T00:17:06.537Z,86.5
2017-02-02T00:17:36.564Z,86.12
2017-02-02T00:18:06.596Z,86.41
2017-02-02T00:18:36.625Z,86.41
2017-02-02T00:19:06.659Z,86.5
2017-02-02T00:19:36.686Z,86.41
2017-02-02T00:20:06.718Z,86.41
2017-02-02T00:20:36.748Z,86.41
2017-02-02T00:21:06.778Z,86.22
2017-02-02T00:21:36.808Z,86.03
2017-02-02T00:22:06.728Z,86.5
2017-02-02T00:22:36.873Z,86.98
2017-02-02T00:23:06.903Z,86.41
2017-02-02T00:23:36.952Z,86.41
2017-02-02T00:24:06.961Z,86.5
2017-02-02T00:24:37.296Z,86.31
2017-02-02T00:25:07.025Z,86.5
2017-02-02T00:25:37.055Z,86.5
2017-02-02T00:26:06.940Z,86.5
2017-02-02T00:26:37.117Z,86.41
2017-02-02T00:27:07.141Z,86.6
2017-02-02T00:27:37.175Z,86.03
2017-02-02T00:28:07.208Z,86.6
2017-02-02T00:28:37.242Z,86.6
2017-02-02T00:29:07.270Z,86.6
2017-02-02T00:29:37.549Z,86.5
2017-02-02T00:30:07.331Z,86.41
2017-02-02T00:30:37.362Z,86.12
2017-02-02T00:31:07.391Z,86.31
2017-02-02T00:31:37.436Z,86.41
2017-02-02T00:32:07.304Z,86.31
2017-02-02T00:32:37.488Z,86.31
2017-02-02T00:33:07.516Z,86.31
2017-02-02T00:33:37.546Z,86.22
2017-02-02T00:34:07.427Z,85.65
2017-02-02T00:34:37.604Z,86.22
2017-02-02T00:35:07.637Z,86.22
2017-02-02T00:35:37.663Z,86.41
2017-02-02T00:36:07.696Z,86.41
2017-02-02T00:36:37.732Z,86.88
2017-02-02T00:37:07.761Z,86.69
2017-02-02T00:37:37.793Z,86.41
2017-02-02T00:38:07.834Z,85.84
2017-02-02T00:38:37.855Z,85.74
2017-02-02T00:39:07.881Z,85.84
2017-02-02T00:39:37.916Z,86.5
2017-02-02T00:40:07.943Z,86.69
2017-02-02T00:40:37.977Z,86.12
2017-02-02T00:41:08.003Z,86.22
2017-02-02T00:41:38.038Z,86.5
2017-02-02T00:42:08.066Z,85.84
2017-02-02T00:42:38.098Z,86.41
2017-02-02T00:43:08.126Z,86.41
2017-02-02T00:43:38.159Z,86.5
2017-02-02T00:44:08.039Z,86.41
2017-02-02T00:44:38.220Z,86.69
2017-02-02T00:45:08.108Z,86.5
2017-02-02T00:45:38.280Z,86.03
2017-02-02T00:46:08.313Z,86.69
2017-02-02T00:46:38.345Z,86.6
2017-02-02T00:47:08.376Z,86.6
2017-02-02T00:47:38.409Z,86.5
2017-02-02T00:48:08.283Z,86.69
2017-02-02T00:48:38.464Z,86.69
2017-02-02T00:49:08.348Z,86.6
2017-02-02T00:49:38.538Z,86.5
2017-02-02T00:50:08.758Z,86.79
2017-02-02T00:50:38.586Z,86.5
2017-02-02T00:51:08.618Z,86.6
2017-02-02T00:51:38.648Z,86.69
2017-02-02T00:52:08.675Z,86.69
2017-02-02T00:52:38.712Z,86.69
2017-02-02T00:53:08.741Z,86.5
2017-02-02T00:53:38.771Z,86.41
2017-02-02T00:54:08.653Z,86.5
2017-02-02T00:54:38.831Z,85.84
2017-02-02T00:55:08.720Z,86.31
2017-02-02T00:55:38.893Z,86.31
2017-02-02T00:56:08.778Z,86.41
2017-02-02T00:56:38.955Z,86.22
2017-02-02T00:57:08.990Z,86.41
2017-02-02T00:57:39.016Z,86.31
2017-02-02T00:58:08.901Z,86.41
2017-02-02T00:58:39.076Z,85.84
2017-02-02T00:59:09.107Z,86.41
2017-02-02T00:59:39.139Z,86.41
2017-02-02T01:00:09.170Z,86.41
2017-02-02T01:00:39.200Z,86.5
2017-02-02T01:01:09.228Z,86.31
2017-02-02T01:01:39.260Z,86.41
2017-02-02T01:02:09.288Z,86.41
2017-02-02T01:02:39.321Z,86.5
2017-02-02T01:03:09.352Z,86.5
2017-02-02T01:03:39.384Z,86.12
2017-02-02T01:04:09.444Z,86.6
2017-02-02T01:04:39.441Z,86.69
2017-02-02T01:05:09.331Z,86.5
2017-02-02T01:05:39.504Z,86.5
2017-02-02T01:06:09.545Z,86.5
2017-02-02T01:06:39.566Z,86.5
2017-02-02T01:07:09.596Z,86.5
2017-02-02T01:07:39.625Z,86.5
2017-02-02T01:08:09.656Z,86.5
2017-02-02T01:08:39.687Z,86.5
2017-02-02T01:09:09.715Z,86.6
2017-02-02T01:09:39.746Z,86.5
2017-02-02T01:10:09.776Z,86.5
2017-02-02T01:10:40.111Z,86.5
2017-02-02T01:11:09.839Z,86.41
2017-02-02T01:11:39.869Z,86.5
2017-02-02T01:12:09.896Z,86.41
2017-02-02T01:12:39.934Z,86.22
2017-02-02T01:13:09.961Z,86.31
2017-02-02T01:13:39.991Z,86.31
2017-02-02T01:14:10.020Z,86.41
2017-02-02T01:14:40.051Z,86.41
2017-02-02T01:15:10.083Z,86.6
2017-02-02T01:15:40.361Z,86.6
2017-02-02T01:16:10.142Z,86.5
2017-02-02T01:16:40.176Z,86.41
2017-02-02T01:17:10.202Z,86.79
2017-02-02T01:17:40.233Z,86.98
2017-02-02T01:18:10.270Z,86.98
2017-02-02T01:18:40.297Z,86.69
2017-02-02T01:19:10.328Z,86.88
2017-02-02T01:19:40.356Z,86.5
2017-02-02T01:20:10.386Z,86.88
2017-02-02T01:20:40.419Z,86.79
2017-02-02T01:21:10.450Z,86.79
2017-02-02T01:21:40.480Z,86.98
2017-02-02T01:22:10.511Z,87.26
2017-02-02T01:22:40.537Z,86.88
2017-02-02T01:23:10.565Z,87.16
2017-02-02T01:23:40.596Z,87.26
2017-02-02T01:24:10.628Z,87.07
2017-02-02T01:24:40.662Z,86.88
2017-02-02T01:25:10.695Z,87.26
2017-02-02T01:25:40.723Z,86.98
2017-02-02T01:26:10.757Z,86.98
2017-02-02T01:26:40.785Z,86.88
2017-02-02T01:27:10.816Z,87.07
2017-02-02T01:27:40.846Z,87.26
2017-02-02T01:28:10.877Z,87.26
2017-02-02T01:28:40.909Z,87.16
2017-02-02T01:29:10.936Z,86.79
2017-02-02T01:29:40.969Z,86.88
2017-02-02T01:30:10.997Z,87.07
2017-02-02T01:30:41.028Z,86.79
2017-02-02T01:31:11.061Z,86.79
2017-02-02T01:31:41.089Z,86.88
2017-02-02T01:32:11.116Z,87.16
2017-02-02T01:32:41.148Z,87.26
2017-02-02T01:33:11.183Z,87.35
2017-02-02T01:33:41.214Z,87.45
2017-02-02T01:34:11.250Z,87.07
2017-02-02T01:34:41.269Z,87.07
2017-02-02T01:35:11.313Z,86.88
2017-02-02T01:35:41.336Z,87.07
2017-02-02T01:36:11.615Z,87.35
2017-02-02T01:36:41.396Z,86.79
2017-02-02T01:37:11.429Z,87.26
2017-02-02T01:37:41.455Z,87.35
2017-02-02T01:38:11.342Z,87.35
2017-02-02T01:38:41.518Z,87.35
2017-02-02T01:39:11.554Z,87.26
2017-02-02T01:39:41.578Z,87.26
2017-02-02T01:40:11.608Z,86.98
2017-02-02T01:40:41.641Z,87.07
2017-02-02T01:41:11.973Z,87.16
2017-02-02T01:41:41.699Z,87.35
2017-02-02T01:42:11.730Z,87.07
2017-02-02T01:42:41.762Z,87.16
2017-02-02T01:43:11.794Z,87.16
2017-02-02T01:43:41.825Z,87.45
2017-02-02T01:44:11.857Z,87.16
2017-02-02T01:44:41.884Z,87.16
2017-02-02T01:45:11.917Z,87.26
2017-02-02T01:45:41.945Z,87.45
2017-02-02T01:46:11.976Z,87.26
2017-02-02T01:46:42.006Z,87.16
2017-02-02T01:47:12.037Z,87.45
2017-02-02T01:47:42.069Z,87.35
2017-02-02T01:48:12.102Z,87.45
2017-02-02T01:48:42.136Z,87.16
2017-02-02T01:49:12.159Z,87.16
2017-02-02T01:49:42.189Z,86.98
2017-02-02T01:50:12.223Z,87.26
2017-02-02T01:50:42.256Z,87.45
2017-02-02T01:51:12.291Z,87.45
2017-02-02T01:51:42.317Z,87.26
2017-02-02T01:52:12.345Z,87.26
2017-02-02T01:52:42.378Z,87.35
2017-02-02T01:53:12.410Z,87.07
2017-02-02T01:53:42.436Z,87.16
2017-02-02T01:54:12.467Z,87.16
2017-02-02T01:54:42.497Z,87.35
2017-02-02T01:55:12.525Z,87.45
2017-02-02T01:55:42.558Z,87.35
2017-02-02T01:56:12.589Z,87.16
2017-02-02T01:56:42.618Z,87.45
2017-02-02T01:57:12.652Z,87.26
2017-02-02T01:57:42.691Z,87.64
2017-02-02T01:58:12.715Z,87.16
2017-02-02T01:58:42.744Z,87.45
2017-02-02T01:59:12.777Z,87.35
2017-02-02T01:59:42.805Z,87.45
2017-02-02T02:00:12.839Z,88.02
2017-02-02T02:00:42.866Z,87.26
2017-02-02T02:01:12.896Z,87.92
2017-02-02T02:01:43.086Z,87.92
2017-02-02T02:02:12.962Z,87.45
2017-02-02T02:02:43.015Z,87.45
2017-02-02T02:03:13.025Z,87.45
2017-02-02T02:03:43.053Z,87.35
2017-02-02T02:04:13.080Z,87.16
2017-02-02T02:04:43.113Z,88.02
2017-02-02T02:05:13.141Z,87.92
2017-02-02T02:05:43.184Z,88.02
2017-02-02T02:06:13.056Z,87.83
2017-02-02T02:06:43.537Z,87.83
2017-02-02T02:07:13.263Z,87.83
2017-02-02T02:07:43.307Z,87.83
2017-02-02T02:08:13.330Z,88.02
2017-02-02T02:08:43.356Z,87.64
2017-02-02T02:09:13.399Z,87.92
2017-02-02T02:09:43.418Z,87.83
2017-02-02T02:10:13.447Z,88.02
2017-02-02T02:10:43.478Z,87.54
2017-02-02T02:11:13.513Z,87.54
2017-02-02T02:11:43.543Z,87.54
2017-02-02T02:12:13.575Z,87.83
2017-02-02T02:12:43.602Z,87.54
2017-02-02T02:13:13.667Z,87.83
2017-02-02T02:13:43.667Z,87.73
2017-02-02T02:14:13.694Z,87.92
2017-02-02T02:14:43.724Z,87.83
2017-02-02T02:15:13.757Z,87.92
2017-02-02T02:15:43.789Z,87.92
2017-02-02T02:16:13.817Z,87.83
2017-02-02T02:16:43.847Z,87.73
2017-02-02T02:17:13.882Z,87.73
2017-02-02T02:17:43.908Z,87.64
2017-02-02T02:18:13.938Z,87.92
2017-02-02T02:18:43.969Z,87.92
2017-02-02T02:19:14.004Z,87.92
2017-02-02T02:19:44.036Z,88.11
2017-02-02T02:20:14.066Z,87.54
2017-02-02T02:20:44.098Z,87.64
2017-02-02T02:21:14.126Z,87.54
2017-02-02T02:21:44.155Z,87.83
2017-02-02T02:22:14.187Z,88.11
2017-02-02T02:22:44.228Z,87.73
2017-02-02T02:23:14.249Z,87.64
2017-02-02T02:23:44.281Z,87.64
2017-02-02T02:24:14.310Z,87.92
2017-02-02T02:24:44.342Z,87.83
2017-02-02T02:25:14.369Z,87.92
2017-02-02T02:25:44.405Z,87.64
2017-02-02T02:26:14.431Z,87.64
2017-02-02T02:26:44.462Z,87.83
2017-02-02T02:27:14.799Z,87.64
2017-02-02T02:27:44.524Z,87.73
2017-02-02T02:28:14.553Z,87.83
2017-02-02T02:28:44.587Z,87.83
2017-02-02T02:29:14.617Z,88.11
2017-02-02T02:29:44.646Z,87.83
2017-02-02T02:30:14.676Z,88.21
2017-02-02T02:30:44.713Z,87.92
2017-02-02T02:31:14.742Z,88.21
2017-02-02T02:31:44.773Z,87.73
2017-02-02T02:32:15.101Z,87.83
2017-02-02T02:32:44.829Z,87.83
2017-02-02T02:33:14.859Z,87.83
2017-02-02T02:33:44.890Z,87.83
2017-02-02T02:34:14.929Z,87.83
2017-02-02T02:34:44.985Z,87.92
2017-02-02T02:35:14.984Z,88.02
2017-02-02T02:35:45.017Z,87.83
2017-02-02T02:36:15.049Z,87.83
2017-02-02T02:36:45.084Z,87.83
2017-02-02T02:37:15.108Z,87.83
2017-02-02T02:37:45.140Z,87.92
2017-02-02T02:38:15.167Z,87.92
2017-02-02T02:38:45.197Z,88.11
2017-02-02T02:39:15.231Z,87.83
2017-02-02T02:39:45.261Z,87.64
2017-02-02T02:40:15.296Z,88.02
2017-02-02T02:40:45.321Z,87.92
2017-02-02T02:41:15.354Z,88.02
2017-02-02T02:41:45.383Z,87.54
2017-02-02T02:42:15.417Z,87.83
2017-02-02T02:42:45.439Z,87.64
2017-02-02T02:43:15.476Z,87.92
2017-02-02T02:43:45.510Z,88.21
2017-02-02T02:44:15.534Z,87.83
2017-02-02T02:44:45.565Z,87.92
2017-02-02T02:45:15.595Z,87.83
2017-02-02T02:45:45.627Z,87.83
2017-02-02T02:46:15.657Z,87.73
2017-02-02T02:46:45.688Z,87.83
2017-02-02T02:47:15.719Z,87.73
2017-02-02T02:47:46.054Z,87.73
2017-02-02T02:48:15.780Z,87.83
2017-02-02T02:48:45.809Z,88.11
2017-02-02T02:49:15.840Z,88.3
2017-02-02T02:49:45.873Z,88.3
2017-02-02T02:50:15.903Z,88.3
2017-02-02T02:50:45.934Z,88.11
2017-02-02T02:51:15.973Z,88.21
2017-02-02T02:51:45.994Z,88.3
2017-02-02T02:52:16.060Z,88.3
2017-02-02T02:52:46.054Z,88.21
2017-02-02T02:53:16.091Z,88.21
2017-02-02T02:53:46.118Z,88.4
2017-02-02T02:54:16.147Z,88.3
2017-02-02T02:54:46.176Z,88.3
2017-02-02T02:55:16.206Z,88.4
2017-02-02T02:55:46.242Z,88.3
2017-02-02T02:56:16.267Z,88.3
2017-02-02T02:56:46.298Z,88.3
2017-02-02T02:57:16.334Z,88.21
2017-02-02T02:57:46.360Z,87.83
2017-02-02T02:58:16.398Z,88.02
2017-02-02T02:58:46.431Z,87.83
2017-02-02T02:59:16.453Z,87.83
2017-02-02T02:59:46.484Z,88.02
2017-02-02T03:00:16.523Z,87.73
2017-02-02T03:00:46.545Z,87.83
2017-02-02T03:01:16.578Z,88.21
2017-02-02T03:01:46.608Z,88.21
2017-02-02T03:02:16.640Z,88.3
2017-02-02T03:02:46.665Z,88.11
2017-02-02T03:03:17.050Z,88.3
2017-02-02T03:03:46.730Z,88.21
2017-02-02T03:04:16.613Z,88.11
2017-02-02T03:04:46.793Z,88.3
2017-02-02T03:05:16.819Z,88.3
2017-02-02T03:05:46.850Z,88.3
2017-02-02T03:06:16.736Z,87.83
2017-02-02T03:06:46.917Z,87.83
2017-02-02T03:07:16.797Z,87.73
2017-02-02T03:07:46.975Z,88.4
2017-02-02T03:08:16.999Z,87.83
2017-02-02T03:08:47.036Z,87.83
2017-02-02T03:09:17.065Z,88.21
2017-02-02T03:09:47.098Z,88.3
2017-02-02T03:10:17.135Z,88.21
2017-02-02T03:10:47.160Z,88.21
2017-02-02T03:11:17.192Z,88.49
2017-02-02T03:11:47.218Z,88.3
2017-02-02T03:12:17.249Z,88.4
2017-02-02T03:12:47.281Z,87.83
2017-02-02T03:13:17.308Z,88.3
2017-02-02T03:13:47.340Z,88.3
2017-02-02T03:14:17.370Z,88.49
2017-02-02T03:14:47.405Z,88.49
2017-02-02T03:15:17.431Z,88.21
2017-02-02T03:15:47.462Z,88.11
2017-02-02T03:16:17.490Z,88.21
2017-02-02T03:16:47.520Z,88.21
2017-02-02T03:17:17.557Z,88.11
2017-02-02T03:17:47.582Z,88.3
2017-02-02T03:18:17.468Z,88.49
2017-02-02T03:18:47.893Z,88.49
2017-02-02T03:19:17.674Z,88.11
2017-02-02T03:19:47.709Z,88.21
2017-02-02T03:20:17.740Z,88.49
2017-02-02T03:20:47.767Z,88.4
2017-02-02T03:21:17.799Z,87.73
2017-02-02T03:21:47.831Z,87.83
2017-02-02T03:22:17.716Z,87.83
2017-02-02T03:22:47.890Z,87.83
2017-02-02T03:23:17.953Z,87.83
2017-02-02T03:23:47.948Z,87.83
2017-02-02T03:24:17.989Z,87.83
2017-02-02T03:24:48.013Z,87.83
2017-02-02T03:25:18.047Z,87.92
2017-02-02T03:25:48.079Z,88.21
2017-02-02T03:26:18.105Z,87.73
2017-02-02T03:26:48.133Z,87.83
2017-02-02T03:27:18.018Z,88.11
2017-02-02T03:27:48.199Z,87.83
2017-02-02T03:28:18.227Z,87.83
2017-02-02T03:28:48.259Z,87.83
2017-02-02T03:29:18.291Z,87.83
2017-02-02T03:29:48.322Z,88.3
2017-02-02T03:30:18.353Z,87.83
2017-02-02T03:30:48.380Z,87.73
2017-02-02T03:31:18.266Z,87.73
2017-02-02T03:31:48.440Z,88.3
2017-02-02T03:32:18.324Z,88.4
2017-02-02T03:32:48.501Z,88.02
2017-02-02T03:33:18.533Z,88.11
2017-02-02T03:33:48.563Z,88.02
2017-02-02T03:34:18.938Z,88.11
2017-02-02T03:34:48.628Z,88.21
2017-02-02T03:35:18.656Z,88.21
2017-02-02T03:35:48.687Z,88.21
2017-02-02T03:36:18.718Z,88.11
2017-02-02T03:36:48.747Z,88.21
2017-02-02T03:37:18.775Z,88.21
2017-02-02T03:37:48.813Z,88.21
2017-02-02T03:38:18.838Z,88.21
2017-02-02T03:38:48.868Z,88.21
2017-02-02T03:39:18.898Z,88.02
2017-02-02T03:39:48.930Z,88.11
2017-02-02T03:40:18.963Z,88.11
2017-02-02T03:40:48.989Z,88.3
2017-02-02T03:41:18.880Z,88.11
2017-02-02T03:41:49.053Z,88.3
2017-02-02T03:42:19.088Z,88.3
2017-02-02T03:42:49.114Z,88.49
2017-02-02T03:43:19.142Z,87.73
2017-02-02T03:43:49.172Z,87.83
2017-02-02T03:44:19.207Z,87.92
2017-02-02T03:44:49.237Z,88.11
2017-02-02T03:45:19.266Z,88.11
2017-02-02T03:45:49.305Z,87.73
2017-02-02T03:46:19.336Z,87.64
2017-02-02T03:46:49.359Z,87.83
2017-02-02T03:47:19.426Z,88.02
2017-02-02T03:47:49.419Z,88.21
2017-02-02T03:48:19.450Z,88.21
2017-02-02T03:48:49.479Z,87.83
2017-02-02T03:49:19.514Z,87.92
2017-02-02T03:49:49.543Z,87.83
2017-02-02T03:50:19.573Z,87.83
2017-02-02T03:50:49.600Z,87.83
2017-02-02T03:51:19.636Z,88.02
2017-02-02T03:51:49.670Z,87.83
2017-02-02T03:52:19.696Z,87.73
2017-02-02T03:52:49.724Z,87.73
2017-02-02T03:53:19.758Z,87.83
2017-02-02T03:53:49.786Z,87.73
2017-02-02T03:54:19.819Z,88.3
2017-02-02T03:54:50.148Z,88.49
2017-02-02T03:55:19.875Z,88.21
2017-02-02T03:55:49.906Z,88.21
2017-02-02T03:56:19.947Z,88.11
2017-02-02T03:56:49.982Z,88.21
2017-02-02T03:57:20.000Z,88.11
2017-02-02T03:57:50.031Z,88.21
2017-02-02T03:58:20.063Z,88.21
2017-02-02T03:58:50.089Z,88.11
2017-02-02T03:59:19.974Z,88.11
2017-02-02T03:59:50.451Z,88.02
2017-02-02T04:00:20.178Z,88.21
2017-02-02T04:00:50.209Z,88.21
2017-02-02T04:01:20.097Z,88.96
2017-02-02T04:01:50.271Z,88.02
2017-02-02T04:02:20.307Z,88.3
2017-02-02T04:02:50.334Z,87.83
2017-02-02T04:03:20.219Z,88.02
2017-02-02T04:03:50.396Z,88.21
2017-02-02T04:04:20.280Z,88.21
2017-02-02T04:04:50.460Z,88.02
2017-02-02T04:05:20.489Z,88.11
2017-02-02T04:05:50.518Z,88.21
2017-02-02T04:06:20.549Z,88.96
2017-02-02T04:06:50.578Z,88.3
2017-02-02T04:07:20.608Z,88.4
2017-02-02T04:07:50.641Z,88.87
2017-02-02T04:08:20.523Z,88.49
2017-02-02T04:08:50.701Z,88.68
2017-02-02T04:09:20.731Z,88.68
2017-02-02T04:09:50.768Z,88.78
2017-02-02T04:10:20.797Z,88.87
2017-02-02T04:10:50.829Z,88.68
2017-02-02T04:11:20.853Z,88.87
2017-02-02T04:11:50.887Z,88.78
2017-02-02T04:12:20.917Z,88.78
2017-02-02T04:12:50.945Z,88.49
2017-02-02T04:13:20.979Z,88.78
2017-02-02T04:13:51.009Z,88.87
2017-02-02T04:14:21.035Z,88.68
2017-02-02T04:14:51.068Z,88.68
2017-02-02T04:15:20.956Z,88.3
2017-02-02T04:15:51.131Z,88.21
2017-02-02T04:16:21.159Z,88.4
2017-02-02T04:16:51.192Z,88.21
2017-02-02T04:17:21.227Z,88.02
2017-02-02T04:17:51.255Z,88.11
2017-02-02T04:18:21.282Z,88.11
2017-02-02T04:18:51.312Z,88.21
2017-02-02T04:19:21.344Z,88.21
2017-02-02T04:19:51.373Z,88.21
2017-02-02T04:20:21.655Z,88.21
2017-02-02T04:20:51.438Z,88.21
2017-02-02T04:21:21.466Z,88.11
2017-02-02T04:21:51.497Z,88.49
2017-02-02T04:22:21.555Z,88.3
2017-02-02T04:22:51.557Z,88.21
2017-02-02T04:23:21.588Z,88.3
2017-02-02T04:23:51.619Z,88.3
2017-02-02T04:24:21.503Z,88.3
2017-02-02T04:24:51.685Z,88.49
2017-02-02T04:25:21.814Z,88.3
2017-02-02T04:25:51.737Z,87.83
2017-02-02T04:26:21.625Z,87.83
2017-02-02T04:26:51.801Z,87.73
2017-02-02T04:27:21.686Z,87.92
2017-02-02T04:27:51.862Z,87.73
2017-02-02T04:28:21.749Z,87.83
2017-02-02T04:28:51.927Z,88.3
2017-02-02T04:29:21.955Z,88.21
2017-02-02T04:29:51.986Z,88.3
2017-02-02T04:30:22.013Z,88.4
2017-02-02T04:30:52.047Z,88.49
2017-02-02T04:31:22.077Z,88.3
2017-02-02T04:31:52.109Z,88.3
2017-02-02T04:32:22.134Z,88.49
2017-02-02T04:32:52.167Z,87.73
2017-02-02T04:33:22.201Z,87.83
2017-02-02T04:33:52.230Z,88.02
2017-02-02T04:34:22.264Z,88.02
2017-02-02T04:34:52.292Z,87.83
2017-02-02T04:35:22.327Z,87.83
2017-02-02T04:35:52.356Z,87.92
2017-02-02T04:36:22.385Z,87.83
2017-02-02T04:36:52.411Z,87.83
2017-02-02T04:37:22.445Z,88.11
2017-02-02T04:37:52.473Z,87.73
2017-02-02T04:38:22.503Z,87.73
2017-02-02T04:38:52.533Z,88.3
2017-02-02T04:39:22.565Z,87.83
2017-02-02T04:39:52.596Z,88.21
2017-02-02T04:40:22.627Z,87.83
2017-02-02T04:40:52.656Z,87.83
2017-02-02T04:41:22.543Z,88.3
2017-02-02T04:41:52.718Z,88.49
2017-02-02T04:42:22.748Z,88.49
2017-02-02T04:42:52.778Z,88.21
2017-02-02T04:43:22.807Z,88.11
2017-02-02T04:43:52.841Z,88.21
2017-02-02T04:44:22.867Z,88.21
2017-02-02T04:44:52.905Z,88.21
2017-02-02T04:45:22.928Z,88.21
2017-02-02T04:45:53.316Z,88.26
2017-02-02T04:46:22.990Z,88.07
2017-02-02T04:46:53.024Z,88.17
2017-02-02T04:47:22.943Z,88.11
2017-02-02T04:47:53.095Z,88.02
2017-02-02T04:48:23.114Z,88.11
2017-02-02T04:48:53.144Z,87.83
2017-02-02T04:49:23.175Z,88.17
2017-02-02T04:49:53.205Z,88.21
2017-02-02T04:50:23.232Z,88.07
2017-02-02T04:50:53.518Z,88.3
2017-02-02T04:51:23.152Z,88.3
2017-02-02T04:51:53.328Z,88.17
2017-02-02T04:52:23.357Z,88.17
2017-02-02T04:52:53.388Z,88.07
2017-02-02T04:53:23.269Z,88.07
2017-02-02T04:53:53.454Z,87.98
2017-02-02T04:54:23.477Z,88.07
2017-02-02T04:54:53.512Z,88.17
2017-02-02T04:55:23.542Z,88.07
2017-02-02T04:55:53.570Z,88.17
2017-02-02T04:56:23.601Z,87.98
2017-02-02T04:56:53.639Z,88.17
2017-02-02T04:57:23.663Z,88.26
2017-02-02T04:57:53.694Z,88.64
2017-02-02T04:58:23.724Z,88.64
2017-02-02T04:58:53.756Z,87.98
2017-02-02T04:59:23.785Z,88.17
2017-02-02T04:59:53.818Z,88.17
2017-02-02T05:00:23.847Z,88.17
2017-02-02T05:00:53.879Z,87.78
2017-02-02T05:01:23.907Z,88.17
2017-02-02T05:01:53.938Z,87.88
2017-02-02T05:02:23.967Z,88.54
2017-02-02T05:02:54.000Z,88.73
2017-02-02T05:03:24.038Z,88.54
2017-02-02T05:03:54.059Z,88.17
2017-02-02T05:04:24.085Z,87.88
2017-02-02T05:04:54.123Z,87.98
2017-02-02T05:05:24.156Z,87.78
2017-02-02T05:05:54.183Z,88.45
2017-02-02T05:06:24.214Z,88.26
2017-02-02T05:06:54.241Z,88.07
2017-02-02T05:07:24.274Z,88.26
2017-02-02T05:07:54.302Z,88.45
2017-02-02T05:08:24.340Z,88.07
2017-02-02T05:08:54.367Z,88.26
2017-02-02T05:09:24.392Z,88.54
2017-02-02T05:09:54.425Z,88.54
2017-02-02T05:10:24.453Z,88.17
2017-02-02T05:10:54.488Z,88.17
2017-02-02T05:11:24.863Z,88.17
2017-02-02T05:11:54.550Z,87.88
2017-02-02T05:12:24.579Z,88.07
2017-02-02T05:12:54.608Z,88.73
2017-02-02T05:13:24.641Z,88.54
2017-02-02T05:13:54.668Z,88.82
2017-02-02T05:14:24.696Z,88.64
2017-02-02T05:14:54.724Z,88.64
2017-02-02T05:15:24.759Z,88.64
2017-02-02T05:15:54.789Z,88.64
2017-02-02T05:16:24.826Z,88.82
2017-02-02T05:16:54.849Z,88.82
2017-02-02T05:17:24.883Z,88.82
2017-02-02T05:17:54.915Z,87.78
2017-02-02T05:18:24.938Z,88.82
2017-02-02T05:18:54.976Z,88.35
2017-02-02T05:19:25.010Z,88.82
2017-02-02T05:19:55.031Z,87.78
2017-02-02T05:20:25.063Z,88.64
2017-02-02T05:20:55.094Z,88.54
2017-02-02T05:21:25.123Z,88.82
2017-02-02T05:21:55.158Z,88.82
2017-02-02T05:22:25.182Z,88.64
2017-02-02T05:22:55.219Z,88.82
2017-02-02T05:23:25.249Z,88.64
2017-02-02T05:23:55.276Z,88.54
2017-02-02T05:24:25.307Z,87.78
2017-02-02T05:24:55.336Z,87.88
2017-02-02T05:25:25.367Z,88.54
2017-02-02T05:25:55.397Z,88.64
2017-02-02T05:26:25.424Z,88.07
2017-02-02T05:26:55.458Z,88.73
2017-02-02T05:27:25.486Z,88.73
2017-02-02T05:27:55.518Z,88.45
2017-02-02T05:28:25.554Z,88.54
2017-02-02T05:28:55.579Z,88.54
2017-02-02T05:29:25.615Z,88.73
2017-02-02T05:29:55.639Z,88.45
2017-02-02T05:30:25.669Z,88.45
2017-02-02T05:30:55.697Z,88.45
2017-02-02T05:31:25.728Z,88.45
2017-02-02T05:31:56.013Z,88.45
2017-02-02T05:32:25.791Z,88.45
2017-02-02T05:32:55.818Z,88.26
2017-02-02T05:33:25.851Z,88.45
2017-02-02T05:33:55.881Z,88.17
2017-02-02T05:34:25.917Z,88.35
2017-02-02T05:34:55.937Z,88.35
2017-02-02T05:35:25.980Z,88.17
2017-02-02T05:35:56.005Z,88.35
2017-02-02T05:36:26.035Z,88.45
2017-02-02T05:36:56.067Z,88.26
2017-02-02T05:37:26.098Z,88.45
2017-02-02T05:37:56.125Z,88.26
2017-02-02T05:38:26.155Z,88.45
2017-02-02T05:38:56.197Z,88.35
2017-02-02T05:39:26.214Z,88.45
2017-02-02T05:39:56.248Z,88.35
2017-02-02T05:40:26.284Z,88.26
2017-02-02T05:40:56.303Z,88.64
2017-02-02T05:41:26.334Z,88.82
2017-02-02T05:41:56.369Z,88.64
2017-02-02T05:42:26.401Z,88.82
2017-02-02T05:42:56.431Z,88.54
2017-02-02T05:43:26.460Z,88.73
2017-02-02T05:43:56.491Z,88.64
2017-02-02T05:44:26.527Z,88.64
2017-02-02T05:44:56.547Z,88.64
2017-02-02T05:45:26.579Z,88.35
2017-02-02T05:45:56.615Z,88.54
2017-02-02T05:46:26.639Z,88.45
2017-02-02T05:46:56.670Z,88.35
2017-02-02T05:47:26.812Z,88.45
2017-02-02T05:47:56.734Z,88.26
2017-02-02T05:48:26.759Z,88.45
2017-02-02T05:48:56.797Z,88.64
2017-02-02T05:49:26.825Z,88.54
2017-02-02T05:49:56.857Z,88.45
2017-02-02T05:50:26.738Z,88.26
2017-02-02T05:50:56.918Z,88.26
2017-02-02T05:51:26.801Z,88.45
2017-02-02T05:51:56.974Z,88.26
2017-02-02T05:52:27.003Z,88.26
2017-02-02T05:52:57.035Z,88.64
2017-02-02T05:53:27.065Z,88.73
2017-02-02T05:53:57.103Z,88.45
2017-02-02T05:54:27.125Z,88.54
2017-02-02T05:54:57.156Z,88.54
2017-02-02T05:55:27.188Z,88.54
2017-02-02T05:55:57.218Z,88.45
2017-02-02T05:56:27.245Z,88.64
2017-02-02T05:56:57.278Z,88.26
2017-02-02T05:57:27.313Z,88.35
2017-02-02T05:57:57.338Z,88.35
2017-02-02T05:58:27.367Z,88.54
2017-02-02T05:58:57.396Z,88.26
2017-02-02T05:59:27.291Z,88.26
2017-02-02T05:59:57.458Z,88.45
2017-02-02T06:00:27.339Z,88.17
2017-02-02T06:00:57.523Z,88.26
2017-02-02T06:01:27.552Z,88.17
2017-02-02T06:01:57.583Z,88.45
2017-02-02T06:02:27.607Z,88.17
2017-02-02T06:02:57.891Z,88.17
2017-02-02T06:03:27.670Z,87.78
2017-02-02T06:03:57.699Z,87.78
2017-02-02T06:04:27.588Z,88.45
2017-02-02T06:04:57.760Z,88.26
2017-02-02T06:05:27.795Z,88.35
2017-02-02T06:05:57.822Z,88.26
2017-02-02T06:06:27.707Z,88.17
2017-02-02T06:06:57.890Z,88.64
2017-02-02T06:07:27.915Z,88.35
2017-02-02T06:07:57.944Z,88.35
2017-02-02T06:08:27.974Z,88.26
2017-02-02T06:08:58.009Z,88.26
2017-02-02T06:09:28.046Z,88.26
2017-02-02T06:09:58.068Z,88.73
2017-02-02T06:10:28.098Z,88.45
2017-02-02T06:10:58.128Z,88.64
2017-02-02T06:11:28.157Z,88.45
2017-02-02T06:11:58.188Z,88.45
2017-02-02T06:12:28.068Z,88.35
2017-02-02T06:12:58.244Z,88.64
2017-02-02T06:13:28.277Z,88.54
2017-02-02T06:13:58.308Z,88.82
2017-02-02T06:14:28.348Z,88.64
2017-02-02T06:14:58.367Z,88.64
2017-02-02T06:15:28.404Z,88.82
2017-02-02T06:15:58.429Z,88.73
2017-02-02T06:16:28.460Z,88.64
2017-02-02T06:16:58.493Z,88.73
2017-02-02T06:17:28.524Z,89.01
2017-02-02T06:17:58.553Z,89.11
2017-02-02T06:18:28.579Z,89.01
2017-02-02T06:18:58.463Z,88.82
2017-02-02T06:19:28.639Z,89.11
2017-02-02T06:19:58.673Z,89.2
2017-02-02T06:20:28.699Z,88.64
2017-02-02T06:20:58.731Z,88.73
2017-02-02T06:21:28.763Z,88.54
2017-02-02T06:21:58.795Z,88.64
2017-02-02T06:22:28.675Z,88.82
2017-02-02T06:22:58.855Z,88.35
2017-02-02T06:23:28.886Z,88.26
2017-02-02T06:23:58.917Z,88.35
2017-02-02T06:24:28.940Z,88.26
2017-02-02T06:24:58.975Z,88.26
2017-02-02T06:25:29.007Z,88.35
2017-02-02T06:25:59.029Z,88.35
2017-02-02T06:26:29.061Z,88.64
2017-02-02T06:26:59.097Z,88.26
2017-02-02T06:27:29.124Z,88.73
2017-02-02T06:27:59.156Z,88.82
2017-02-02T06:28:29.487Z,88.82